Time;durP1;ratioP1;P1;durP2;ratioP2;P2;SDS_P1;SDS_P2;PMS_P1;PMS_P2;Temp;Humidity;BMP_temperature;BMP_pressure;BME280_temperature;BME280_humidity;BME280_pressure;Samples;Min_cycle;Max_cycle;Signal;HPM_P1;HPM_P2
2020/12/25 00:01:04;;;;;;;7.20;1.52;;;4.90;91.20;;;;;;4984529;28;20026;-87
2020/12/25 00:03:35;;;;;;;7.88;1.70;;;4.90;91.30;;;;;;5011360;28;20041;-85
2020/12/25 00:06:02;;;;;;;6.25;1.95;;;4.80;91.20;;;;;;4990919;28;20032;-86
2020/12/25 00:08:28;;;;;;;4.97;1.70;;;4.80;91.30;;;;;;4994527;28;20048;-85
2020/12/25 00:10:56;;;;;;;5.13;1.50;;;4.80;91.30;;;;;;4989315;28;20034;-86
2020/12/25 00:13:31;;;;;;;7.63;2.05;;;4.80;91.30;;;;;;5009515;28;20033;-86
2020/12/25 00:16:07;;;;;;;;;;;;;;;;;;;;;
2020/12/25 00:18:38;;;;;;;7.18;1.73;;;4.70;91.30;;;;;;4999571;28;20044;-85
2020/12/25 00:21:04;;;;;;;7.25;1.63;;;4.70;91.30;;;;;;4981469;28;20526;-86
2020/12/25 00:23:32;;;;;;;4.93;1.40;;;4.70;91.30;;;;;;4998380;28;20053;-85
2020/12/25 00:25:58;;;;;;;12.55;2.17;;;4.60;91.30;;;;;;4995026;28;20121;-85
2020/12/25 00:28:28;;;;;;;4.43;1.40;;;4.60;91.30;;;;;;4997494;28;20038;-86
2020/12/25 00:30:57;;;;;;;7.45;1.80;;;4.60;91.30;;;;;;4985578;28;20034;-86
2020/12/25 00:33:23;;;;;;;6.93;1.98;;;4.50;91.30;;;;;;5011864;28;20538;-85
2020/12/25 00:35:48;;;;;;;7.82;1.77;;;4.50;91.20;;;;;;4986627;28;20030;-85
2020/12/25 00:38:14;;;;;;;3.55;1.40;;;4.50;91.30;;;;;;5024269;28;20029;-85
2020/12/25 00:40:46;;;;;;;7.40;1.67;;;4.50;91.30;;;;;;4997686;28;20117;-86
2020/12/25 00:43:12;;;;;;;6.20;1.90;;;4.50;91.30;;;;;;4980356;28;20049;-85
2020/12/25 00:45:40;;;;;;;8.93;1.90;;;4.50;91.20;;;;;;4992691;28;20492;-87
2020/12/25 00:48:13;;;;;;;4.95;1.33;;;4.40;91.20;;;;;;5011751;28;20068;-86
2020/12/25 00:50:39;;;;;;;12.07;2.00;;;4.40;91.30;;;;;;4996908;28;20022;-86
2020/12/25 00:53:05;;;;;;;8.52;1.63;;;4.40;91.30;;;;;;4991434;28;20025;-86
2020/12/25 00:55:33;;;;;;;8.93;1.48;;;4.40;91.30;;;;;;4996785;28;20083;-85
2020/12/25 00:57:59;;;;;;;5.80;1.63;;;4.40;91.30;;;;;;5026439;28;20080;-85
2020/12/25 01:00:25;;;;;;;6.93;1.98;;;4.40;91.30;;;;;;4988569;28;20034;-86
2020/12/25 01:02:52;;;;;;;6.47;1.52;;;4.30;91.30;;;;;;4998094;28;20030;-86
2020/12/25 01:05:18;;;;;;;13.75;2.38;;;4.30;91.30;;;;;;4999105;28;20116;-85
2020/12/25 01:07:44;;;;;;;9.38;1.88;;;4.30;91.30;;;;;;4973818;28;20070;-85
2020/12/25 01:10:10;;;;;;;4.65;1.23;;;4.20;91.20;;;;;;4997189;28;20054;-85
2020/12/25 01:12:38;;;;;;;6.18;3.17;;;4.30;91.30;;;;;;4996778;28;20176;-84
2020/12/25 01:15:04;;;;;;;5.38;1.63;;;4.20;91.30;;;;;;4988575;28;20033;-88
2020/12/25 01:17:32;;;;;;;8.85;1.85;;;4.20;91.20;;;;;;5010974;28;20465;-85
2020/12/25 01:19:58;;;;;;;8.73;1.70;;;4.20;91.30;;;;;;5013981;28;20053;-85
2020/12/25 01:22:27;;;;;;;8.93;1.88;;;4.20;91.30;;;;;;4991541;28;20161;-87
2020/12/25 01:24:53;;;;;;;7.55;1.75;;;4.20;91.30;;;;;;4990881;28;20092;-85
2020/12/25 01:27:21;;;;;;;8.02;1.52;;;4.20;91.30;;;;;;4982876;28;20030;-85
2020/12/25 01:29:49;;;;;;;5.13;1.50;;;4.20;91.30;;;;;;4962484;28;20395;-86
2020/12/25 01:32:15;;;;;;;12.15;2.05;;;4.10;91.30;;;;;;5009599;28;20060;-85
2020/12/25 01:34:45;;;;;;;6.80;1.70;;;4.10;91.30;;;;;;4983808;28;20037;-85
2020/12/25 01:37:11;;;;;;;6.63;1.53;;;4.10;91.30;;;;;;4981276;28;20038;-85
2020/12/25 01:39:37;;;;;;;12.30;1.83;;;4.10;91.30;;;;;;4980024;28;20288;-85
2020/12/25 01:42:05;;;;;;;10.60;1.95;;;4.10;91.30;;;;;;4996545;28;20488;-85
2020/12/25 01:44:30;;;;;;;9.23;1.95;;;4.10;91.40;;;;;;4978789;28;20121;-87
2020/12/25 01:46:56;;;;;;;4.75;1.40;;;4.10;91.30;;;;;;4990078;28;20120;-85
2020/12/25 01:49:25;;;;;;;9.25;2.00;;;4.10;91.30;;;;;;4994767;28;20113;-85
2020/12/25 01:51:51;;;;;;;7.30;1.90;;;4.10;91.30;;;;;;5012051;28;20026;-85
2020/12/25 01:54:20;;;;;;;7.57;1.98;;;4.10;91.40;;;;;;4992998;28;20387;-84
2020/12/25 01:56:48;;;;;;;7.88;1.58;;;4.10;91.40;;;;;;5022642;28;20026;-85
2020/12/25 01:59:13;;;;;;;6.63;1.73;;;4.10;91.40;;;;;;4979293;28;20456;-85
2020/12/25 02:01:40;;;;;;;6.20;1.38;;;4.10;91.50;;;;;;4981277;28;20041;-84
2020/12/25 02:04:08;;;;;;;7.20;1.63;;;4.10;91.50;;;;;;5015516;28;20080;-86
2020/12/25 02:06:39;;;;;;;7.68;2.45;;;4.00;91.50;;;;;;4980042;28;20042;-86
2020/12/25 02:09:10;;;;;;;7.55;1.40;;;4.10;91.50;;;;;;5002243;28;20025;-85
2020/12/25 02:11:37;;;;;;;11.90;1.58;;;4.10;91.50;;;;;;4990950;28;20022;-85
2020/12/25 02:14:03;;;;;;;11.80;2.78;;;4.00;91.50;;;;;;4996583;28;20026;-85
2020/12/25 02:16:31;;;;;;;8.82;2.15;;;4.00;91.40;;;;;;4991185;28;20763;-84
2020/12/25 02:18:57;;;;;;;6.65;1.67;;;4.00;91.50;;;;;;4996428;28;20022;-85
2020/12/25 02:21:25;;;;;;;7.38;1.73;;;4.00;91.50;;;;;;5003230;28;20341;-85
2020/12/25 02:23:53;;;;;;;8.23;1.50;;;4.00;91.50;;;;;;5001661;28;20049;-85
2020/12/25 02:26:22;;;;;;;7.07;1.40;;;4.00;91.50;;;;;;4995977;28;20124;-86
2020/12/25 02:28:47;;;;;;;8.40;2.63;;;4.00;91.60;;;;;;4988385;28;20075;-86
2020/12/25 02:31:16;;;;;;;8.85;1.67;;;4.00;91.60;;;;;;5022983;28;20585;-87
2020/12/25 02:33:43;;;;;;;7.20;1.77;;;4.00;91.60;;;;;;4989831;28;20072;-85
2020/12/25 02:36:17;;;;;;;9.18;1.63;;;4.00;91.60;;;;;;4995881;28;20029;-86
2020/12/25 02:38:45;;;;;;;4.57;1.30;;;4.00;91.60;;;;;;4974054;28;20034;-86
2020/12/25 02:41:11;;;;;;;10.77;2.15;;;4.00;91.60;;;;;;4996904;28;20428;-85
2020/12/25 02:43:36;;;;;;;8.98;1.75;;;3.90;91.60;;;;;;4984575;28;20117;-85
2020/12/25 02:46:04;;;;;;;6.82;1.63;;;4.00;91.60;;;;;;5006784;28;20034;-86
2020/12/25 02:48:30;;;;;;;7.60;1.88;;;4.00;91.70;;;;;;4993146;28;21318;-87
2020/12/25 02:50:58;;;;;;;8.25;1.20;;;4.00;91.60;;;;;;4971039;28;20169;-86
2020/12/25 02:53:27;;;;;;;6.63;1.50;;;4.00;91.70;;;;;;4993690;28;20061;-86
2020/12/25 02:55:52;;;;;;;7.78;1.75;;;4.00;91.70;;;;;;4964907;28;20031;-85
2020/12/25 02:58:20;;;;;;;4.13;1.20;;;4.00;91.70;;;;;;4993017;28;20045;-87
2020/12/25 03:00:52;;;;;;;5.55;1.50;;;4.00;91.70;;;;;;4994014;28;20026;-85
2020/12/25 03:03:17;;;;;;;6.38;1.42;;;4.00;91.70;;;;;;4975837;28;20097;-85
2020/12/25 03:05:43;;;;;;;4.30;1.10;;;4.00;91.70;;;;;;4977751;28;20487;-86
2020/12/25 03:08:09;;;;;;;7.13;2.22;;;4.00;91.70;;;;;;4979943;28;20464;-85
2020/12/25 03:10:34;;;;;;;8.63;2.08;;;4.00;91.60;;;;;;4994415;28;20200;-85
2020/12/25 03:13:09;;;;;;;4.57;1.40;;;4.00;91.60;;;;;;4995886;28;20026;-86
2020/12/25 03:15:35;;;;;;;5.78;1.40;;;4.00;91.60;;;;;;4990738;28;20467;-86
2020/12/25 03:18:01;;;;;;;6.07;1.60;;;4.00;91.90;;;;;;4992959;28;20056;-86
2020/12/25 03:20:26;;;;;;;7.65;1.58;;;4.00;91.60;;;;;;5012095;28;20022;-84
2020/12/25 03:22:58;;;;;;;7.30;1.45;;;4.00;91.90;;;;;;4979800;28;20104;-85
2020/12/25 03:25:26;;;;;;;5.53;1.75;;;4.00;91.60;;;;;;4995083;28;20125;-85
2020/12/25 03:27:53;;;;;;;6.82;1.42;;;4.00;91.70;;;;;;5013997;28;20022;-84
2020/12/25 03:30:22;;;;;;;3.55;1.00;;;4.00;91.60;;;;;;4984018;28;20034;-85
2020/12/25 03:32:51;;;;;;;3.67;1.30;;;4.00;91.70;;;;;;4995424;28;20033;-85
2020/12/25 03:35:17;;;;;;;4.45;1.20;;;4.00;91.60;;;;;;4990863;28;20069;-86
2020/12/25 03:37:45;;;;;;;4.82;1.17;;;4.00;91.60;;;;;;4996489;28;20053;-86
2020/12/25 03:40:11;;;;;;;8.75;1.70;;;4.00;91.60;;;;;;4993928;28;20534;-85
2020/12/25 03:42:38;;;;;;;5.30;1.20;;;4.00;91.60;;;;;;4992671;28;20033;-85
2020/12/25 03:45:05;;;;;;;4.47;0.90;;;4.00;91.60;;;;;;4980705;28;20109;-85
2020/12/25 03:47:30;;;;;;;3.35;0.88;;;4.00;91.50;;;;;;4984982;28;20030;-85
2020/12/25 03:49:56;;;;;;;5.25;1.20;;;4.00;91.50;;;;;;4994244;28;20033;-84
2020/12/25 03:52:22;;;;;;;5.30;1.10;;;4.00;91.50;;;;;;4978531;28;20048;-86
2020/12/25 03:54:50;;;;;;;4.88;0.85;;;4.00;91.50;;;;;;4993307;28;20068;-85
2020/12/25 03:57:16;;;;;;;8.93;1.48;;;4.10;91.50;;;;;;5031209;28;20472;-85
2020/12/25 03:59:42;;;;;;;4.30;1.00;;;4.10;91.50;;;;;;4980609;28;20113;-84
2020/12/25 04:02:17;;;;;;;5.75;0.93;;;4.10;91.50;;;;;;4994905;28;20377;-85
2020/12/25 04:04:43;;;;;;;6.20;1.33;;;4.10;91.50;;;;;;4992278;28;20113;-84
2020/12/25 04:07:16;;;;;;;6.18;1.25;;;4.10;91.40;;;;;;4997618;28;20067;-85
2020/12/25 04:09:45;;;;;;;5.85;1.10;;;4.10;91.40;;;;;;4983202;28;20056;-86
2020/12/25 04:12:10;;;;;;;3.72;0.95;;;4.00;91.30;;;;;;4982156;28;20484;-87
2020/12/25 04:14:36;;;;;;;1.92;0.60;;;4.00;91.30;;;;;;4992222;28;20037;-85
2020/12/25 04:17:04;;;;;;;5.65;0.90;;;4.00;91.30;;;;;;5028378;28;20022;-86
2020/12/25 04:19:32;;;;;;;2.47;0.50;;;4.00;91.30;;;;;;4996989;28;20038;-84
2020/12/25 04:21:59;;;;;;;3.25;0.75;;;4.00;91.30;;;;;;4986187;28;20120;-85
2020/12/25 04:24:25;;;;;;;5.47;1.00;;;4.00;91.30;;;;;;4991618;28;20550;-86
2020/12/25 04:26:54;;;;;;;4.50;1.15;;;4.00;91.30;;;;;;4993631;28;20124;-86
2020/12/25 04:29:22;;;;;;;2.88;0.55;;;4.00;91.20;;;;;;4982359;28;20497;-85
2020/12/25 04:31:48;;;;;;;2.33;1.02;;;4.00;91.20;;;;;;4994429;28;20022;-87
2020/12/25 04:34:16;;;;;;;2.70;0.70;;;3.90;91.20;;;;;;4987208;28;20041;-84
2020/12/25 04:36:42;;;;;;;5.30;0.80;;;3.90;91.20;;;;;;4996639;28;20056;-84
2020/12/25 04:39:15;;;;;;;4.57;0.75;;;3.90;91.20;;;;;;4964857;28;20080;-86
2020/12/25 04:41:44;;;;;;;2.85;0.60;;;3.80;91.20;;;;;;4982434;28;20038;-85
2020/12/25 04:44:10;;;;;;;5.18;0.75;;;3.80;91.20;;;;;;4995824;28;20069;-86
2020/12/25 04:46:37;;;;;;;1.80;0.60;;;3.80;91.20;;;;;;4985607;28;20483;-85
2020/12/25 04:49:03;;;;;;;2.55;0.40;;;3.80;91.20;;;;;;5009599;28;20460;-85
2020/12/25 04:51:29;;;;;;;2.10;0.50;;;3.80;91.30;;;;;;5012741;28;20406;-84
2020/12/25 04:53:57;;;;;;;1.95;0.40;;;3.80;91.30;;;;;;4995439;28;20052;-85
2020/12/25 04:56:26;;;;;;;3.30;0.90;;;3.80;91.30;;;;;;4997873;28;20057;-84
2020/12/25 04:58:53;;;;;;;3.65;0.63;;;3.80;91.30;;;;;;4978505;28;20034;-87
2020/12/25 05:01:19;;;;;;;2.60;0.75;;;3.80;91.30;;;;;;5000387;28;20366;-85
2020/12/25 05:03:46;;;;;;;2.50;0.60;;;3.80;91.30;;;;;;5007186;28;20073;-86
2020/12/25 05:06:12;;;;;;;2.25;0.40;;;3.80;91.40;;;;;;5007939;28;20033;-86
2020/12/25 05:08:46;;;;;;;2.97;0.50;;;3.80;91.40;;;;;;4986520;28;20019;-85
2020/12/25 05:11:18;;;;;;;4.80;0.70;;;3.80;91.40;;;;;;5016202;28;20033;-86
2020/12/25 05:13:52;;;;;;;1.65;0.55;;;3.80;91.40;;;;;;4992497;28;20022;-85
2020/12/25 05:16:20;;;;;;;3.50;0.50;;;3.80;91.40;;;;;;5000863;28;20022;-86
2020/12/25 05:18:51;;;;;;;1.88;0.40;;;3.80;91.50;;;;;;5010017;28;20022;-85
2020/12/25 05:21:21;;;;;;;3.55;0.70;;;3.80;91.50;;;;;;4988753;28;20912;-85
2020/12/25 05:23:54;;;;;;;1.50;0.40;;;3.80;91.50;;;;;;4997785;28;20049;-85
2020/12/25 05:26:22;;;;;;;2.63;0.63;;;3.80;91.50;;;;;;4990245;28;20056;-86
2020/12/25 05:28:50;;;;;;;4.15;0.85;;;3.80;91.50;;;;;;4990318;28;20026;-87
2020/12/25 05:31:17;;;;;;;3.47;0.80;;;3.80;91.50;;;;;;5011572;28;20629;-85
2020/12/25 05:33:43;;;;;;;2.72;0.60;;;3.80;91.50;;;;;;5005974;28;20395;-85
2020/12/25 05:36:20;;;;;;;1.85;0.60;;;3.80;91.50;;;;;;4996562;28;20093;-86
2020/12/25 05:38:50;;;;;;;0.63;0.32;;;3.80;91.50;;;;;;4996687;28;20457;-86
2020/12/25 05:41:19;;;;;;;3.75;0.75;;;3.80;91.50;;;;;;4997658;28;20078;-85
2020/12/25 05:43:49;;;;;;;0.77;0.32;;;3.80;91.60;;;;;;4996424;28;20022;-87
2020/12/25 05:46:17;;;;;;;2.35;0.45;;;3.80;91.60;;;;;;5013924;28;20038;-85
2020/12/25 05:48:51;;;;;;;6.40;0.68;;;3.80;91.60;;;;;;4994677;28;20471;-87
2020/12/25 05:51:24;;;;;;;2.38;0.50;;;3.80;91.60;;;;;;4988801;28;20093;-85
2020/12/25 05:53:54;;;;;;;0.45;0.38;;;3.80;91.60;;;;;;5029105;28;20030;-85
2020/12/25 05:56:23;;;;;;;1.75;0.43;;;3.80;91.60;;;;;;4993025;28;20025;-84
2020/12/25 05:58:53;;;;;;;2.40;0.40;;;3.80;91.70;;;;;;4979267;28;20117;-85
2020/12/25 06:01:21;;;;;;;0.70;0.35;;;3.70;91.70;;;;;;4993572;28;20029;-87
2020/12/25 06:03:47;;;;;;;1.73;0.50;;;3.70;91.70;;;;;;4997200;28;20045;-85
2020/12/25 06:06:14;;;;;;;1.45;0.40;;;3.70;91.70;;;;;;4996730;28;20029;-85
2020/12/25 06:09:04;;;;;;;4.25;0.60;;;3.80;91.70;;;;;;4996975;28;20472;-85
2020/12/25 06:11:39;;;;;;;4.30;0.73;;;3.70;91.70;;;;;;4980842;28;20045;-85
2020/12/25 06:14:05;;;;;;;3.55;0.68;;;3.70;91.70;;;;;;4985153;28;20128;-86
2020/12/25 06:16:31;;;;;;;4.70;0.88;;;3.70;91.70;;;;;;4989100;28;20021;-84
2020/12/25 06:19:20;;;;;;;1.65;0.40;;;3.70;91.70;;;;;;4978652;28;20034;-85
2020/12/25 06:21:53;;;;;;;2.63;0.88;;;3.60;91.80;;;;;;4989643;28;20029;-88
2020/12/25 06:24:19;;;;;;;4.57;1.08;;;3.70;91.80;;;;;;4991592;28;20492;-85
2020/12/25 06:26:50;;;;;;;2.50;0.80;;;3.60;91.80;;;;;;4977687;28;20256;-85
2020/12/25 06:29:16;;;;;;;7.13;1.00;;;3.60;91.80;;;;;;4993244;28;20080;-84
2020/12/25 06:31:49;;;;;;;6.55;0.88;;;3.60;91.80;;;;;;4986400;28;20164;-85
2020/12/25 06:34:15;;;;;;;4.90;1.23;;;3.60;91.90;;;;;;4992791;28;20034;-85
2020/12/25 06:36:48;;;;;;;7.05;1.08;;;3.60;91.90;;;;;;5012605;28;20026;-86
2020/12/25 06:39:17;;;;;;;5.45;1.38;;;3.60;91.90;;;;;;5013380;28;20033;-84
2020/12/25 06:41:48;;;;;;;7.82;1.13;;;3.70;91.90;;;;;;5009205;28;20104;-85
2020/12/25 06:44:16;;;;;;;5.13;0.93;;;3.70;92.00;;;;;;4993641;28;20053;-85
2020/12/25 06:46:49;;;;;;;4.45;1.20;;;3.70;91.90;;;;;;4994564;28;20780;-86
2020/12/25 06:49:16;;;;;;;4.82;0.88;;;3.70;91.90;;;;;;4989690;28;20026;-85
2020/12/25 06:51:46;;;;;;;3.67;1.55;;;3.70;91.90;;;;;;4995995;28;20029;-84
2020/12/25 06:54:19;;;;;;;3.95;0.88;;;3.70;91.90;;;;;;5009829;28;20065;-85
2020/12/25 06:56:50;;;;;;;5.55;1.17;;;3.80;92.00;;;;;;5024977;28;20029;-85
2020/12/25 06:59:18;;;;;;;5.72;0.90;;;3.80;91.90;;;;;;4977891;28;20036;-85
2020/12/25 07:01:46;;;;;;;5.47;0.80;;;3.80;91.90;;;;;;4997338;28;20028;-86
2020/12/25 07:04:32;;;;;;;4.72;0.80;;;3.80;91.90;;;;;;4981615;28;20506;-84
2020/12/25 07:07:05;;;;;;;6.78;1.42;;;3.80;91.90;;;;;;5013222;28;20371;-85
2020/12/25 07:09:36;;;;;;;7.30;1.30;;;3.80;91.90;;;;;;4993855;28;20026;-86
2020/12/25 07:12:19;;;;;;;8.20;1.20;;;3.80;91.90;;;;;;4995885;28;20432;-85
2020/12/25 07:14:48;;;;;;;4.10;1.38;;;3.90;91.90;;;;;;4988528;28;20133;-86
2020/12/25 07:17:14;;;;;;;7.13;0.85;;;3.80;91.80;;;;;;4988824;28;20622;-86
2020/12/25 07:19:42;;;;;;;5.90;1.42;;;3.90;91.80;;;;;;5017736;28;20124;-85
2020/12/25 07:22:08;;;;;;;6.50;1.40;;;3.90;91.80;;;;;;4990931;28;20037;-86
2020/12/25 07:24:42;;;;;;;4.95;1.10;;;3.90;91.70;;;;;;4969509;28;20065;-86
2020/12/25 07:27:11;;;;;;;5.05;1.00;;;3.90;91.70;;;;;;4980128;28;20034;-85
2020/12/25 07:29:41;;;;;;;4.40;1.15;;;3.80;91.70;;;;;;4990913;28;20034;-86
2020/12/25 07:32:19;;;;;;;4.85;1.20;;;3.80;91.60;;;;;;5011815;28;20104;-85
2020/12/25 07:34:47;;;;;;;2.42;0.85;;;3.80;91.60;;;;;;4993155;28;20145;-88
2020/12/25 07:37:18;;;;;;;4.95;1.00;;;3.80;91.60;;;;;;4995551;28;20476;-84
2020/12/25 07:39:47;;;;;;;3.78;0.90;;;3.80;91.60;;;;;;4979129;28;20084;-88
2020/12/25 07:42:12;;;;;;;6.32;1.20;;;3.80;91.60;;;;;;5011129;28;20080;-85
2020/12/25 07:44:42;;;;;;;7.47;1.00;;;3.80;91.60;;;;;;4993540;28;20030;-86
2020/12/25 07:47:11;;;;;;;6.45;1.08;;;3.80;91.60;;;;;;5012567;28;20021;-84
2020/12/25 07:49:44;;;;;;;5.22;1.17;;;3.80;91.60;;;;;;4989072;28;20022;-86
2020/12/25 07:52:12;;;;;;;5.38;1.27;;;3.80;91.60;;;;;;4992099;28;20468;-86
2020/12/25 07:54:40;;;;;;;5.05;1.25;;;3.80;91.60;;;;;;4991587;28;20044;-85
2020/12/25 07:57:09;;;;;;;6.85;1.45;;;3.80;91.60;;;;;;4992681;28;20060;-86
2020/12/25 07:59:38;;;;;;;7.95;1.55;;;3.80;91.60;;;;;;4961132;28;20034;-86
2020/12/25 08:02:07;;;;;;;6.35;1.30;;;3.70;91.60;;;;;;4979722;28;20669;-86
2020/12/25 08:04:36;;;;;;;6.22;1.27;;;3.70;91.90;;;;;;4991023;28;20701;-84
2020/12/25 08:07:07;;;;;;;9.32;1.63;;;3.70;91.60;;;;;;5006902;28;20057;-86
2020/12/25 08:09:38;;;;;;;;;;;3.70;91.60;;;;;;4978512;28;20464;-85
2020/12/25 08:12:11;;;;;;;7.55;1.20;;;3.70;91.60;;;;;;5009272;28;19925;-85
2020/12/25 08:14:44;;;;;;;4.93;1.60;;;3.70;91.60;;;;;;5007226;28;20476;-85
2020/12/25 08:17:14;;;;;;;4.75;1.08;;;3.70;91.60;;;;;;4965466;28;20522;-87
2020/12/25 08:19:46;;;;;;;7.30;1.63;;;3.70;91.60;;;;;;4982689;28;20035;-85
2020/12/25 08:22:11;;;;;;;6.07;1.02;;;3.70;91.60;;;;;;4989576;28;20019;-86
2020/12/25 08:24:39;;;;;;;3.58;1.10;;;3.70;91.60;;;;;;4980572;28;20446;-85
2020/12/25 08:27:05;;;;;;;5.07;1.20;;;3.70;91.70;;;;;;4973326;28;20045;-86
2020/12/25 08:29:32;;;;;;;6.75;1.58;;;3.70;91.70;;;;;;4977642;28;20034;-84
2020/12/25 08:32:11;;;;;;;5.35;0.98;;;3.60;91.70;;;;;;4991939;28;20060;-84
2020/12/25 08:34:37;;;;;;;4.55;1.05;;;3.70;91.80;;;;;;4999261;28;20037;-84
2020/12/25 08:37:17;;;;;;;7.97;1.45;;;3.70;91.80;;;;;;4988298;28;20079;-84
2020/12/25 08:39:45;;;;;;;6.35;1.60;;;3.70;91.80;;;;;;4993672;28;20038;-85
2020/12/25 08:42:18;;;;;;;4.95;1.10;;;3.70;91.80;;;;;;4996792;28;20104;-85
2020/12/25 08:44:57;;;;;;;4.63;0.98;;;3.70;91.90;;;;;;5009379;28;20405;-86
2020/12/25 08:47:23;;;;;;;4.43;1.00;;;3.80;91.90;;;;;;4974133;28;20050;-87
2020/12/25 08:49:54;;;;;;;5.90;1.35;;;3.80;91.90;;;;;;4963014;28;20027;-85
2020/12/25 08:52:21;;;;;;;11.53;1.63;;;3.80;91.90;;;;;;4972649;28;20029;-85
2020/12/25 08:54:55;;;;;;;7.80;1.80;;;3.80;91.90;;;;;;4982382;28;21093;-84
2020/12/25 08:57:24;;;;;;;6.97;1.33;;;3.80;92.00;;;;;;4986157;28;20500;-85
2020/12/25 09:00:06;;;;;;;4.38;1.30;;;3.90;92.00;;;;;;4991999;28;20534;-86
2020/12/25 09:02:32;;;;;;;6.55;1.52;;;3.90;92.00;;;;;;4990603;28;20478;-85
2020/12/25 09:05:00;;;;;;;7.22;1.60;;;3.90;92.00;;;;;;5010078;28;20045;-86
2020/12/25 09:07:26;;;;;;;5.95;1.30;;;4.00;92.10;;;;;;4970102;28;20465;-85
2020/12/25 09:09:54;;;;;;;5.68;1.38;;;4.00;92.10;;;;;;4994378;28;20073;-83
2020/12/25 09:12:22;;;;;;;5.88;1.42;;;4.00;92.20;;;;;;4991328;28;20038;-85
2020/12/25 09:14:51;;;;;;;5.93;2.35;;;4.10;92.20;;;;;;4987640;28;20042;-86
2020/12/25 09:17:22;;;;;;;7.05;1.48;;;4.10;92.20;;;;;;4994714;28;20029;-86
2020/12/25 09:20:16;;;;;;;6.22;1.65;;;4.10;92.20;;;;;;4991023;28;20083;-86
2020/12/25 09:22:46;;;;;;;7.47;1.52;;;4.10;92.20;;;;;;4979954;28;20038;-83
2020/12/25 09:25:22;;;;;;;5.40;1.67;;;4.10;92.20;;;;;;4991400;28;20081;-83
2020/12/25 09:28:01;;;;;;;;;;;;;;;;;;;;;
2020/12/25 09:30:36;;;;;;;5.20;1.35;;;4.20;92.20;;;;;;5007931;28;20029;-86
2020/12/25 09:33:20;;;;;;;4.35;1.20;;;4.20;92.20;;;;;;4993243;28;20033;-84
2020/12/25 09:35:51;;;;;;;8.80;1.63;;;4.20;92.20;;;;;;4995516;28;20077;-84
2020/12/25 09:38:20;;;;;;;6.57;1.80;;;4.30;92.30;;;;;;5001400;28;20022;-84
2020/12/25 09:41:14;;;;;;;4.07;1.02;;;4.30;92.20;;;;;;4994068;28;20026;-84
2020/12/25 09:43:44;;;;;;;6.25;1.52;;;4.30;92.20;;;;;;4987862;28;20025;-85
2020/12/25 09:46:10;;;;;;;8.23;1.60;;;4.30;92.20;;;;;;4991531;28;20484;-84
2020/12/25 09:48:38;;;;;;;4.57;1.35;;;4.40;92.30;;;;;;5021680;28;20025;-84
2020/12/25 09:51:13;;;;;;;5.85;1.35;;;4.40;92.30;;;;;;4991910;28;20034;-87
2020/12/25 09:53:49;;;;;;;5.55;1.40;;;4.40;92.30;;;;;;4990275;28;20030;-84
2020/12/25 09:56:15;;;;;;;9.13;1.83;;;4.50;92.30;;;;;;4986230;28;20036;-85
2020/12/25 09:58:43;;;;;;;7.60;1.98;;;4.50;92.30;;;;;;4981917;28;20076;-83
2020/12/25 10:01:09;;;;;;;9.35;1.70;;;4.60;92.30;;;;;;5004365;28;20022;-84
2020/12/25 10:03:37;;;;;;;5.13;1.15;;;4.60;92.20;;;;;;4996258;28;20032;-84
2020/12/25 10:06:03;;;;;;;6.80;1.70;;;4.70;92.20;;;;;;4989848;28;20039;-83
2020/12/25 10:08:28;;;;;;;4.43;1.40;;;4.70;92.10;;;;;;4990119;28;20038;-82
2020/12/25 10:10:59;;;;;;;7.97;1.55;;;4.70;92.00;;;;;;4993221;28;20022;-84
2020/12/25 10:13:27;;;;;;;5.95;1.55;;;4.80;91.90;;;;;;4991224;28;20033;-84
2020/12/25 10:15:56;;;;;;;6.18;1.42;;;4.80;91.90;;;;;;4968085;28;21440;-83
2020/12/25 10:18:39;;;;;;;5.50;1.40;;;4.90;92.00;;;;;;4983443;28;20033;-84
2020/12/25 10:21:16;;;;;;;5.88;1.65;;;4.90;91.70;;;;;;4982286;28;20035;-84
2020/12/25 10:23:52;;;;;;;;;;;;;;;;;;;;;
2020/12/25 10:26:18;;;;;;;3.85;1.00;;;5.00;91.40;;;;;;4998493;28;20021;-85
2020/12/25 10:28:51;;;;;;;4.97;1.10;;;5.00;91.30;;;;;;4986557;28;20117;-83
2020/12/25 10:31:17;;;;;;;6.38;1.73;;;5.10;91.30;;;;;;4997962;28;20480;-84
2020/12/25 10:33:45;;;;;;;7.28;1.17;;;5.10;91.50;;;;;;4988074;28;20096;-85
2020/12/25 10:36:22;;;;;;;4.43;1.05;;;5.10;91.10;;;;;;4983194;28;20037;-84
2020/12/25 10:38:52;;;;;;;4.68;1.00;;;5.10;90.90;;;;;;4991171;28;20029;-83
2020/12/25 10:41:21;;;;;;;5.10;1.00;;;5.20;90.80;;;;;;5003290;28;20109;-86
2020/12/25 10:43:54;;;;;;;5.55;1.33;;;5.20;90.90;;;;;;4986017;28;20030;-85
2020/12/25 10:46:23;;;;;;;7.10;1.48;;;5.20;90.70;;;;;;4960225;28;20034;-84
2020/12/25 10:48:51;;;;;;;5.55;1.17;;;5.20;90.50;;;;;;5006462;28;20037;-84
2020/12/25 10:51:19;;;;;;;6.18;1.40;;;5.20;90.30;;;;;;4969894;28;20050;-85
2020/12/25 10:53:52;;;;;;;9.82;1.23;;;5.20;90.10;;;;;;4998633;28;20041;-84
2020/12/25 10:56:26;;;;;;;5.05;1.70;;;5.20;89.90;;;;;;4988043;28;20422;-84
2020/12/25 10:59:20;;;;;;;;;;;;;;;;;;;;;
2020/12/25 11:01:48;;;;;;;2.88;0.73;;;5.20;89.90;;;;;;4997568;28;20434;-85
2020/12/25 11:04:14;;;;;;;3.35;1.10;;;5.20;90.00;;;;;;4978896;28;20034;-85
2020/12/25 11:06:39;;;;;;;2.63;0.90;;;5.30;89.70;;;;;;4989142;28;20022;-84
2020/12/25 11:09:17;;;;;;;;;;;;;;;;;;;;;
2020/12/25 11:11:43;;;;;;;3.72;1.00;;;5.30;89.50;;;;;;5004749;28;20028;-85
2020/12/25 11:14:09;;;;;;;5.32;1.55;;;5.40;89.80;;;;;;4982173;28;20112;-83
2020/12/25 11:16:37;;;;;;;4.95;0.95;;;5.40;90.00;;;;;;4987106;28;20046;-81
2020/12/25 11:19:09;;;;;;;3.42;0.88;;;5.40;89.10;;;;;;4987519;28;20041;-83
2020/12/25 11:21:38;;;;;;;6.13;1.08;;;5.40;88.60;;;;;;4985401;28;20033;-85
2020/12/25 11:24:05;;;;;;;3.00;0.80;;;5.40;88.30;;;;;;5006919;28;20060;-88
2020/12/25 11:26:35;;;;;;;5.10;0.90;;;5.50;88.10;;;;;;4990568;28;20491;-85
2020/12/25 11:29:03;;;;;;;3.97;0.80;;;5.50;87.70;;;;;;4993671;28;20454;-88
2020/12/25 11:31:30;;;;;;;3.10;0.70;;;5.50;87.60;;;;;;4985025;28;20025;-86
2020/12/25 11:34:01;;;;;;;2.70;0.80;;;5.50;87.60;;;;;;4986795;28;20036;-86
2020/12/25 11:36:32;;;;;;;3.80;0.80;;;5.60;87.50;;;;;;4978707;28;20606;-87
2020/12/25 11:39:06;;;;;;;3.38;0.50;;;5.60;87.80;;;;;;4980521;28;20072;-88
2020/12/25 11:41:35;;;;;;;2.95;0.73;;;5.60;87.70;;;;;;5013968;28;20036;-87
2020/12/25 11:44:01;;;;;;;5.60;1.00;;;5.60;87.80;;;;;;4985712;28;20037;-85
2020/12/25 11:46:30;;;;;;;4.43;0.95;;;5.70;87.90;;;;;;4970002;28;20031;-86
2020/12/25 11:48:59;;;;;;;8.73;1.67;;;5.70;87.50;;;;;;4979855;28;20117;-86
2020/12/25 11:51:28;;;;;;;6.90;1.00;;;5.70;87.10;;;;;;5004744;28;20037;-86
2020/12/25 11:53:57;;;;;;;5.15;1.00;;;5.70;87.10;;;;;;4981982;28;20038;-85
2020/12/25 11:56:45;;;;;;;4.05;1.00;;;5.70;87.10;;;;;;4990344;28;20076;-86
2020/12/25 11:59:11;;;;;;;4.45;1.25;;;5.80;87.00;;;;;;4983283;28;20038;-85
2020/12/25 12:01:45;;;;;;;4.57;0.93;;;5.80;86.70;;;;;;4983322;28;20019;-85
2020/12/25 12:04:11;;;;;;;5.78;1.48;;;5.80;86.80;;;;;;4984096;28;20037;-85
2020/12/25 12:06:39;;;;;;;6.95;1.13;;;5.80;87.00;;;;;;4979071;28;20121;-86
2020/12/25 12:09:12;;;;;;;4.95;1.13;;;5.80;86.90;;;;;;4993125;28;20029;-85
2020/12/25 12:11:44;;;;;;;5.35;1.23;;;5.80;87.20;;;;;;4983258;28;20041;-86
2020/12/25 12:14:20;;;;;;;3.35;0.90;;;5.90;87.20;;;;;;4997342;28;20026;-85
2020/12/25 12:16:51;;;;;;;5.78;1.30;;;5.90;87.30;;;;;;4998555;28;20022;-85
2020/12/25 12:19:17;;;;;;;6.53;1.25;;;5.90;87.50;;;;;;4998306;28;20360;-86
2020/12/25 12:21:43;;;;;;;12.32;2.30;;;5.90;86.90;;;;;;4998599;28;20085;-85
2020/12/25 12:24:09;;;;;;;3.05;1.25;;;5.90;87.10;;;;;;5016177;28;20057;-85
2020/12/25 12:26:37;;;;;;;5.15;1.30;;;5.90;87.20;;;;;;4982660;28;20032;-85
2020/12/25 12:29:06;;;;;;;5.45;1.40;;;6.00;87.30;;;;;;4998908;28;20415;-85
2020/12/25 12:31:39;;;;;;;7.43;2.15;;;6.00;87.20;;;;;;4998545;28;20022;-86
2020/12/25 12:34:05;;;;;;;5.43;1.50;;;6.10;87.00;;;;;;4998486;28;20033;-85
2020/12/25 12:36:31;;;;;;;6.72;1.45;;;6.10;86.90;;;;;;4998544;28;20022;-86
2020/12/25 12:39:05;;;;;;;6.70;1.73;;;6.10;86.70;;;;;;4999042;28;20040;-86
2020/12/25 12:41:36;;;;;;;5.22;1.80;;;6.10;86.30;;;;;;4998910;28;20604;-86
2020/12/25 12:44:02;;;;;;;5.57;2.20;;;6.20;86.00;;;;;;5000053;28;20080;-85
2020/12/25 12:46:30;;;;;;;5.38;1.75;;;6.10;86.10;;;;;;4998550;28;20029;-86
2020/12/25 12:48:58;;;;;;;4.75;1.08;;;6.10;86.30;;;;;;4978981;28;20092;-85
2020/12/25 12:51:25;;;;;;;7.55;1.20;;;6.20;86.20;;;;;;4990286;28;20022;-86
2020/12/25 12:53:53;;;;;;;3.40;0.88;;;6.20;86.20;;;;;;4981036;28;20148;-85
2020/12/25 12:56:23;;;;;;;6.40;1.73;;;6.20;86.20;;;;;;5019193;28;20479;-88
2020/12/25 12:58:51;;;;;;;5.72;1.40;;;6.20;86.00;;;;;;4982608;28;20030;-88
2020/12/25 13:01:27;;;;;;;5.60;1.50;;;6.20;85.60;;;;;;4992702;28;20189;-87
2020/12/25 13:07:06;;;;;;;6.53;1.45;;;6.20;84.50;;;;;;5002981;28;20038;-86
2020/12/25 13:09:43;;;;;;;4.75;1.15;;;6.20;84.30;;;;;;5002552;28;20084;-88
2020/12/25 13:12:16;;;;;;;3.42;0.90;;;6.20;84.60;;;;;;5007485;28;20035;-88
2020/12/25 13:14:52;;;;;;;;;;;;;;;;;;;;;
2020/12/25 13:17:24;;;;;;;3.60;0.77;;;6.20;84.80;;;;;;5020572;28;20117;-88